OOCL Hamburg — VRZK9 — position and weather

sailwx.info

Track history (hours):
 
Tides and Currents Weather Stations Pressure Air Temp Water Temp Dewpoint Dewpoint Depression Visibility Wind Speed Wind Dir Waves Ship Positions

OOCL Hamburg

Last reported at 2015-Aug-21 14:21 UTC. Time now 2015-Aug-28 09:32 UTC.
Position N 03°47' E 099°56'.

Length 323 m; beam 42.8 m; draft 14.5 m.

Type: Cargo ship. MMSI: 477702000.

Date/timePositionNaut miles runAvg speedWind from/ knotsBaromVisibWave heightAir tempDewpointWater temp
2015-Aug-21 14:21N 03°47' E 099°56'3419.2
2015-Aug-21 12:33N 03°24' E 100°21'3718.7
2015-Aug-21 10:33N 02°60' E 100°50'1919.0
2015-Aug-21 09:33N 02°48' E 101°04'4020.1
2015-Aug-21 07:33N 02°27' E 101°39'2019.7
2015-Aug-21 06:33N 02°15' E 101°55'4118.0
2015-Aug-21 04:16N 01°51' E 102°28'8517.9
2015-Aug-20 23:33N 01°10' E 103°42'1111.2
2015-Aug-20 22:33N 01°14' E 103°52'3 2.9
2015-Aug-20 21:33N 01°16' E 103°51'0 0.0
2015-Aug-20 20:33N 01°16' E 103°51'0 0.0
2015-Aug-20 19:24N 01°16' E 103°51'0 0.0
2015-Aug-20 18:33N 01°16' E 103°51'0 0.0
2015-Aug-20 17:27N 01°16' E 103°51'0 0.0
2015-Aug-20 16:33N 01°16' E 103°51'0 0.0
2015-Aug-20 15:33N 01°16' E 103°51'0 0.0
2015-Aug-20 14:33N 01°16' E 103°51'0 0.0
2015-Aug-20 13:33N 01°16' E 103°51'0 0.0
2015-Aug-20 12:21N 01°16' E 103°51'0 0.0
2015-Aug-20 11:33N 01°16' E 103°51'0 0.0
2015-Aug-20 10:33N 01°16' E 103°51'0 0.0
2015-Aug-20 09:27N 01°16' E 103°51'0 0.0
2015-Aug-20 08:27N 01°16' E 103°51'0 0.0
2015-Aug-20 07:33N 01°16' E 103°51'0 0.0
2015-Aug-20 06:21N 01°16' E 103°51'0 0.0
2015-Aug-20 05:33N 01°16' E 103°51'0 0.0
2015-Aug-20 04:33N 01°16' E 103°51'0 0.0
2015-Aug-20 03:33N 01°16' E 103°51'2 1.5
2015-Aug-20 02:33N 01°15' E 103°52'2 1.6
2015-Aug-20 01:33N 01°14' E 103°53'0 0.1
2015-Aug-20 00:30N 01°14' E 103°53'2 2.0
2015-Aug-19 23:33N 01°14' E 103°55'7 7.0
2015-Aug-19 22:33N 01°16' E 104°02'1010.1
2015-Aug-19 21:33N 01°17' E 104°12'  
Track history (hours):
 
Tides and Currents Weather Stations Pressure Air Temp Water Temp Dewpoint Dewpoint Depression Visibility Wind Speed Wind Dir Waves Ship Positions

OOCL Hamburg

Last reported at 2015-Aug-21 14:21 UTC. Time now 2015-Aug-28 09:32 UTC.
Position N 03°47' E 099°56'.

Length 323 m; beam 42.8 m; draft 14.5 m.

Type: Cargo ship. MMSI: 477702000.

Date/timePositionNaut miles runAvg speedWind from/ knotsBaromVisibWave heightAir tempDewpointWater temp
2015-Aug-21 14:21N 03°47' E 099°56'3419.2
2015-Aug-21 12:33N 03°24' E 100°21'3718.7
2015-Aug-21 10:33N 02°60' E 100°50'1919.0
2015-Aug-21 09:33N 02°48' E 101°04'4020.1
2015-Aug-21 07:33N 02°27' E 101°39'2019.7
2015-Aug-21 06:33N 02°15' E 101°55'4118.0
2015-Aug-21 04:16N 01°51' E 102°28'8517.9
2015-Aug-20 23:33N 01°10' E 103°42'1111.2
2015-Aug-20 22:33N 01°14' E 103°52'3 2.9
2015-Aug-20 21:33N 01°16' E 103°51'0 0.0
2015-Aug-20 20:33N 01°16' E 103°51'0 0.0
2015-Aug-20 19:24N 01°16' E 103°51'0 0.0
2015-Aug-20 18:33N 01°16' E 103°51'0 0.0
2015-Aug-20 17:27N 01°16' E 103°51'0 0.0
2015-Aug-20 16:33N 01°16' E 103°51'0 0.0
2015-Aug-20 15:33N 01°16' E 103°51'0 0.0
2015-Aug-20 14:33N 01°16' E 103°51'0 0.0
2015-Aug-20 13:33N 01°16' E 103°51'0 0.0
2015-Aug-20 12:21N 01°16' E 103°51'0 0.0
2015-Aug-20 11:33N 01°16' E 103°51'0 0.0
2015-Aug-20 10:33N 01°16' E 103°51'0 0.0
2015-Aug-20 09:27N 01°16' E 103°51'0 0.0
2015-Aug-20 08:27N 01°16' E 103°51'0 0.0
2015-Aug-20 07:33N 01°16' E 103°51'0 0.0
2015-Aug-20 06:21N 01°16' E 103°51'0 0.0
2015-Aug-20 05:33N 01°16' E 103°51'0 0.0
2015-Aug-20 04:33N 01°16' E 103°51'0 0.0
2015-Aug-20 03:33N 01°16' E 103°51'2 1.5
2015-Aug-20 02:33N 01°15' E 103°52'2 1.6
2015-Aug-20 01:33N 01°14' E 103°53'0 0.1
2015-Aug-20 00:30N 01°14' E 103°53'2 2.0
2015-Aug-19 23:33N 01°14' E 103°55'7 7.0
2015-Aug-19 22:33N 01°16' E 104°02'1010.1
2015-Aug-19 21:33N 01°17' E 104°12'  

Dump ship's entire track history